sensor_id;sensor_type;location;lat;lon;timestamp;P1;durP1;ratioP1;P2;durP2;ratioP2
49458;SDS011;35354;51.296;16.924;2023-03-23T00:01:57;48.10;;;32.97;;
49458;SDS011;35354;51.296;16.924;2023-03-23T00:04:22;49.55;;;34.33;;
49458;SDS011;35354;51.296;16.924;2023-03-23T00:06:51;50.72;;;35.00;;
49458;SDS011;35354;51.296;16.924;2023-03-23T00:09:16;57.80;;;39.22;;
49458;SDS011;35354;51.296;16.924;2023-03-23T00:11:42;46.33;;;32.78;;
49458;SDS011;35354;51.296;16.924;2023-03-23T00:14:08;52.83;;;33.60;;
49458;SDS011;35354;51.296;16.924;2023-03-23T00:16:38;43.67;;;28.45;;
49458;SDS011;35354;51.296;16.924;2023-03-23T00:19:06;33.70;;;22.65;;
49458;SDS011;35354;51.296;16.924;2023-03-23T00:21:34;36.53;;;23.05;;
49458;SDS011;35354;51.296;16.924;2023-03-23T00:26:34;45.83;;;29.02;;
49458;SDS011;35354;51.296;16.924;2023-03-23T00:29:05;31.40;;;22.13;;
49458;SDS011;35354;51.296;16.924;2023-03-23T00:31:32;30.00;;;21.00;;
49458;SDS011;35354;51.296;16.924;2023-03-23T00:34:02;32.00;;;23.10;;
49458;SDS011;35354;51.296;16.924;2023-03-23T00:36:30;34.33;;;23.42;;
49458;SDS011;35354;51.296;16.924;2023-03-23T00:38:57;25.58;;;19.70;;
49458;SDS011;35354;51.296;16.924;2023-03-23T00:41:26;36.53;;;24.45;;
49458;SDS011;35354;51.296;16.924;2023-03-23T00:43:56;39.78;;;25.80;;
49458;SDS011;35354;51.296;16.924;2023-03-23T00:46:22;56.30;;;32.42;;
49458;SDS011;35354;51.296;16.924;2023-03-23T00:48:49;41.35;;;25.95;;
49458;SDS011;35354;51.296;16.924;2023-03-23T00:51:15;51.45;;;30.75;;
49458;SDS011;35354;51.296;16.924;2023-03-23T00:53:42;50.05;;;29.52;;
49458;SDS011;35354;51.296;16.924;2023-03-23T00:56:08;41.22;;;27.17;;
49458;SDS011;35354;51.296;16.924;2023-03-23T00:58:34;40.88;;;26.00;;
49458;SDS011;35354;51.296;16.924;2023-03-23T01:01:00;35.22;;;23.02;;
49458;SDS011;35354;51.296;16.924;2023-03-23T01:03:26;35.30;;;22.70;;
49458;SDS011;35354;51.296;16.924;2023-03-23T01:05:53;41.83;;;26.70;;
49458;SDS011;35354;51.296;16.924;2023-03-23T01:08:20;31.08;;;21.45;;
49458;SDS011;35354;51.296;16.924;2023-03-23T01:10:46;28.30;;;20.77;;
49458;SDS011;35354;51.296;16.924;2023-03-23T01:13:12;27.58;;;20.10;;
49458;SDS011;35354;51.296;16.924;2023-03-23T01:15:38;24.70;;;19.10;;
49458;SDS011;35354;51.296;16.924;2023-03-23T01:18:03;32.30;;;20.58;;
49458;SDS011;35354;51.296;16.924;2023-03-23T01:20:29;29.80;;;21.90;;
49458;SDS011;35354;51.296;16.924;2023-03-23T01:22:56;36.67;;;22.98;;
49458;SDS011;35354;51.296;16.924;2023-03-23T01:25:25;30.40;;;20.48;;
49458;SDS011;35354;51.296;16.924;2023-03-23T01:27:52;27.58;;;20.08;;
49458;SDS011;35354;51.296;16.924;2023-03-23T01:30:17;28.20;;;19.35;;
49458;SDS011;35354;51.296;16.924;2023-03-23T01:32:42;27.02;;;20.60;;
49458;SDS011;35354;51.296;16.924;2023-03-23T01:35:08;27.02;;;19.63;;
49458;SDS011;35354;51.296;16.924;2023-03-23T01:37:34;28.63;;;20.20;;
49458;SDS011;35354;51.296;16.924;2023-03-23T01:40:01;38.38;;;24.55;;
49458;SDS011;35354;51.296;16.924;2023-03-23T01:42:30;33.35;;;23.20;;
49458;SDS011;35354;51.296;16.924;2023-03-23T01:48:04;44.25;;;26.83;;
49458;SDS011;35354;51.296;16.924;2023-03-23T01:50:42;51.60;;;35.38;;
49458;SDS011;35354;51.296;16.924;2023-03-23T01:53:12;42.20;;;28.67;;
49458;SDS011;35354;51.296;16.924;2023-03-23T01:55:38;50.80;;;32.08;;
49458;SDS011;35354;51.296;16.924;2023-03-23T01:58:05;45.75;;;28.38;;
49458;SDS011;35354;51.296;16.924;2023-03-23T02:00:31;65.85;;;39.33;;
49458;SDS011;35354;51.296;16.924;2023-03-23T02:02:58;43.28;;;29.63;;
49458;SDS011;35354;51.296;16.924;2023-03-23T02:05:32;38.72;;;25.95;;
49458;SDS011;35354;51.296;16.924;2023-03-23T02:08:02;42.53;;;27.95;;
49458;SDS011;35354;51.296;16.924;2023-03-23T02:10:30;40.88;;;27.35;;
49458;SDS011;35354;51.296;16.924;2023-03-23T02:12:57;32.97;;;23.77;;
49458;SDS011;35354;51.296;16.924;2023-03-23T02:15:25;35.38;;;25.42;;
49458;SDS011;35354;51.296;16.924;2023-03-23T02:20:34;62.92;;;39.33;;
49458;SDS011;35354;51.296;16.924;2023-03-23T02:23:21;42.10;;;28.67;;
49458;SDS011;35354;51.296;16.924;2023-03-23T02:31:52;43.83;;;31.05;;
49458;SDS011;35354;51.296;16.924;2023-03-23T02:37:18;37.22;;;26.33;;
49458;SDS011;35354;51.296;16.924;2023-03-23T02:40:02;37.15;;;24.38;;
49458;SDS011;35354;51.296;16.924;2023-03-23T02:42:36;30.02;;;21.55;;
49458;SDS011;35354;51.296;16.924;2023-03-23T02:45:05;33.78;;;22.08;;
49458;SDS011;35354;51.296;16.924;2023-03-23T02:47:33;28.85;;;20.63;;
49458;SDS011;35354;51.296;16.924;2023-03-23T02:50:02;27.77;;;20.15;;
49458;SDS011;35354;51.296;16.924;2023-03-23T02:52:30;25.40;;;18.13;;
49458;SDS011;35354;51.296;16.924;2023-03-23T02:54:57;29.40;;;20.35;;
49458;SDS011;35354;51.296;16.924;2023-03-23T02:57:24;27.23;;;18.75;;
49458;SDS011;35354;51.296;16.924;2023-03-23T02:59:52;25.45;;;18.77;;
49458;SDS011;35354;51.296;16.924;2023-03-23T03:02:18;29.27;;;21.20;;
49458;SDS011;35354;51.296;16.924;2023-03-23T03:04:52;28.33;;;20.87;;
49458;SDS011;35354;51.296;16.924;2023-03-23T03:07:30;27.15;;;18.73;;
49458;SDS011;35354;51.296;16.924;2023-03-23T03:10:08;23.90;;;19.40;;
49458;SDS011;35354;51.296;16.924;2023-03-23T03:12:51;22.23;;;17.88;;
49458;SDS011;35354;51.296;16.924;2023-03-23T03:15:29;26.02;;;16.80;;
49458;SDS011;35354;51.296;16.924;2023-03-23T03:18:05;23.17;;;18.38;;
49458;SDS011;35354;51.296;16.924;2023-03-23T03:20:33;25.95;;;20.27;;
49458;SDS011;35354;51.296;16.924;2023-03-23T03:23:02;26.85;;;20.13;;
49458;SDS011;35354;51.296;16.924;2023-03-23T03:25:32;26.25;;;20.92;;
49458;SDS011;35354;51.296;16.924;2023-03-23T03:27:58;26.85;;;18.75;;
49458;SDS011;35354;51.296;16.924;2023-03-23T03:30:26;28.42;;;19.30;;
49458;SDS011;35354;51.296;16.924;2023-03-23T03:32:55;24.83;;;19.25;;
49458;SDS011;35354;51.296;16.924;2023-03-23T03:35:21;26.23;;;17.65;;
49458;SDS011;35354;51.296;16.924;2023-03-23T03:37:48;27.02;;;20.25;;
49458;SDS011;35354;51.296;16.924;2023-03-23T03:40:17;20.05;;;16.63;;
49458;SDS011;35354;51.296;16.924;2023-03-23T03:42:44;24.77;;;17.40;;
49458;SDS011;35354;51.296;16.924;2023-03-23T03:45:14;25.52;;;17.85;;
49458;SDS011;35354;51.296;16.924;2023-03-23T03:47:42;22.88;;;16.70;;
49458;SDS011;35354;51.296;16.924;2023-03-23T03:50:08;24.15;;;17.63;;
49458;SDS011;35354;51.296;16.924;2023-03-23T03:52:34;20.65;;;16.10;;
49458;SDS011;35354;51.296;16.924;2023-03-23T03:55:00;18.50;;;15.07;;
49458;SDS011;35354;51.296;16.924;2023-03-23T03:57:26;19.60;;;15.25;;
49458;SDS011;35354;51.296;16.924;2023-03-23T03:59:51;19.73;;;14.57;;
49458;SDS011;35354;51.296;16.924;2023-03-23T04:02:17;22.40;;;16.00;;
49458;SDS011;35354;51.296;16.924;2023-03-23T04:04:45;21.55;;;16.83;;
49458;SDS011;35354;51.296;16.924;2023-03-23T04:07:11;19.85;;;15.55;;
49458;SDS011;35354;51.296;16.924;2023-03-23T04:09:39;19.85;;;15.60;;
49458;SDS011;35354;51.296;16.924;2023-03-23T04:12:05;21.83;;;16.13;;
49458;SDS011;35354;51.296;16.924;2023-03-23T04:14:30;16.60;;;13.52;;
49458;SDS011;35354;51.296;16.924;2023-03-23T04:16:56;18.60;;;14.40;;
49458;SDS011;35354;51.296;16.924;2023-03-23T04:19:22;18.58;;;13.85;;
49458;SDS011;35354;51.296;16.924;2023-03-23T04:21:48;20.33;;;15.60;;
49458;SDS011;35354;51.296;16.924;2023-03-23T04:24:14;21.80;;;15.50;;
49458;SDS011;35354;51.296;16.924;2023-03-23T04:26:40;22.27;;;15.57;;
49458;SDS011;35354;51.296;16.924;2023-03-23T04:29:07;19.95;;;15.40;;
49458;SDS011;35354;51.296;16.924;2023-03-23T04:31:33;21.05;;;14.70;;
49458;SDS011;35354;51.296;16.924;2023-03-23T04:33:59;20.50;;;15.02;;
49458;SDS011;35354;51.296;16.924;2023-03-23T04:36:26;20.58;;;15.27;;
49458;SDS011;35354;51.296;16.924;2023-03-23T04:38:53;22.95;;;15.43;;
49458;SDS011;35354;51.296;16.924;2023-03-23T04:41:20;20.77;;;14.43;;
49458;SDS011;35354;51.296;16.924;2023-03-23T04:43:46;22.13;;;15.43;;
49458;SDS011;35354;51.296;16.924;2023-03-23T04:46:17;20.30;;;15.55;;
49458;SDS011;35354;51.296;16.924;2023-03-23T04:48:43;20.70;;;16.52;;
49458;SDS011;35354;51.296;16.924;2023-03-23T04:51:08;22.30;;;16.98;;
49458;SDS011;35354;51.296;16.924;2023-03-23T04:53:33;19.73;;;16.63;;
49458;SDS011;35354;51.296;16.924;2023-03-23T04:55:59;23.33;;;16.55;;
49458;SDS011;35354;51.296;16.924;2023-03-23T04:58:26;22.25;;;17.42;;
49458;SDS011;35354;51.296;16.924;2023-03-23T05:00:52;22.40;;;16.67;;
49458;SDS011;35354;51.296;16.924;2023-03-23T05:03:18;20.20;;;15.70;;
49458;SDS011;35354;51.296;16.924;2023-03-23T05:05:45;20.67;;;15.40;;
49458;SDS011;35354;51.296;16.924;2023-03-23T05:08:20;17.45;;;12.98;;
49458;SDS011;35354;51.296;16.924;2023-03-23T05:10:50;19.30;;;13.82;;
49458;SDS011;35354;51.296;16.924;2023-03-23T05:13:17;23.88;;;14.93;;
49458;SDS011;35354;51.296;16.924;2023-03-23T05:15:43;21.17;;;14.82;;
49458;SDS011;35354;51.296;16.924;2023-03-23T05:18:08;18.80;;;14.23;;
49458;SDS011;35354;51.296;16.924;2023-03-23T05:20:35;16.60;;;13.63;;
49458;SDS011;35354;51.296;16.924;2023-03-23T05:23:00;19.58;;;13.63;;
49458;SDS011;35354;51.296;16.924;2023-03-23T05:25:25;24.15;;;18.15;;
49458;SDS011;35354;51.296;16.924;2023-03-23T05:27:51;18.85;;;14.77;;
49458;SDS011;35354;51.296;16.924;2023-03-23T05:30:18;17.13;;;12.25;;
49458;SDS011;35354;51.296;16.924;2023-03-23T05:32:44;18.00;;;11.30;;
49458;SDS011;35354;51.296;16.924;2023-03-23T05:35:10;15.98;;;11.43;;
49458;SDS011;35354;51.296;16.924;2023-03-23T05:37:36;19.23;;;12.10;;
49458;SDS011;35354;51.296;16.924;2023-03-23T05:40:02;18.02;;;12.73;;
49458;SDS011;35354;51.296;16.924;2023-03-23T05:42:31;15.77;;;11.10;;
49458;SDS011;35354;51.296;16.924;2023-03-23T05:44:58;15.23;;;10.82;;
49458;SDS011;35354;51.296;16.924;2023-03-23T05:47:24;14.73;;;10.77;;
49458;SDS011;35354;51.296;16.924;2023-03-23T05:49:50;17.45;;;11.68;;
49458;SDS011;35354;51.296;16.924;2023-03-23T05:52:16;17.95;;;11.75;;
49458;SDS011;35354;51.296;16.924;2023-03-23T05:54:42;14.00;;;10.88;;
49458;SDS011;35354;51.296;16.924;2023-03-23T05:57:07;15.88;;;10.50;;
49458;SDS011;35354;51.296;16.924;2023-03-23T05:59:33;14.88;;;10.77;;
49458;SDS011;35354;51.296;16.924;2023-03-23T06:01:59;14.18;;;10.70;;
49458;SDS011;35354;51.296;16.924;2023-03-23T06:04:24;15.60;;;9.70;;
49458;SDS011;35354;51.296;16.924;2023-03-23T06:06:51;12.68;;;9.48;;
49458;SDS011;35354;51.296;16.924;2023-03-23T06:09:17;14.82;;;9.07;;
49458;SDS011;35354;51.296;16.924;2023-03-23T06:11:43;12.88;;;10.30;;
49458;SDS011;35354;51.296;16.924;2023-03-23T06:14:09;15.35;;;10.02;;
49458;SDS011;35354;51.296;16.924;2023-03-23T06:16:34;15.73;;;10.23;;
49458;SDS011;35354;51.296;16.924;2023-03-23T06:18:59;13.07;;;9.52;;
49458;SDS011;35354;51.296;16.924;2023-03-23T06:21:25;15.75;;;9.45;;
49458;SDS011;35354;51.296;16.924;2023-03-23T06:23:51;13.98;;;11.40;;
49458;SDS011;35354;51.296;16.924;2023-03-23T06:26:16;16.13;;;11.75;;
49458;SDS011;35354;51.296;16.924;2023-03-23T06:28:44;15.02;;;10.43;;
49458;SDS011;35354;51.296;16.924;2023-03-23T06:31:10;12.25;;;8.63;;
49458;SDS011;35354;51.296;16.924;2023-03-23T06:33:36;14.88;;;11.18;;
49458;SDS011;35354;51.296;16.924;2023-03-23T06:36:03;15.82;;;11.60;;
49458;SDS011;35354;51.296;16.924;2023-03-23T06:38:29;11.30;;;8.77;;
49458;SDS011;35354;51.296;16.924;2023-03-23T06:40:55;10.88;;;8.13;;
49458;SDS011;35354;51.296;16.924;2023-03-23T06:43:21;10.50;;;8.20;;
49458;SDS011;35354;51.296;16.924;2023-03-23T06:45:47;12.50;;;8.32;;
49458;SDS011;35354;51.296;16.924;2023-03-23T06:48:13;10.73;;;8.48;;
49458;SDS011;35354;51.296;16.924;2023-03-23T06:50:41;14.52;;;8.10;;
49458;SDS011;35354;51.296;16.924;2023-03-23T06:53:08;16.20;;;8.07;;
49458;SDS011;35354;51.296;16.924;2023-03-23T06:55:33;10.50;;;7.00;;
49458;SDS011;35354;51.296;16.924;2023-03-23T06:57:59;9.48;;;7.68;;
49458;SDS011;35354;51.296;16.924;2023-03-23T07:00:26;8.85;;;6.88;;
49458;SDS011;35354;51.296;16.924;2023-03-23T07:02:51;9.93;;;7.10;;
49458;SDS011;35354;51.296;16.924;2023-03-23T07:05:17;8.27;;;6.97;;
49458;SDS011;35354;51.296;16.924;2023-03-23T07:07:42;7.57;;;6.40;;
49458;SDS011;35354;51.296;16.924;2023-03-23T07:10:08;9.40;;;6.88;;
49458;SDS011;35354;51.296;16.924;2023-03-23T07:12:35;11.27;;;6.97;;
49458;SDS011;35354;51.296;16.924;2023-03-23T07:15:01;12.35;;;7.72;;
49458;SDS011;35354;51.296;16.924;2023-03-23T07:17:28;8.82;;;7.53;;
49458;SDS011;35354;51.296;16.924;2023-03-23T07:19:53;9.15;;;6.97;;
49458;SDS011;35354;51.296;16.924;2023-03-23T07:22:19;9.73;;;7.22;;
49458;SDS011;35354;51.296;16.924;2023-03-23T07:24:44;9.73;;;7.57;;
49458;SDS011;35354;51.296;16.924;2023-03-23T07:27:10;11.60;;;6.93;;
49458;SDS011;35354;51.296;16.924;2023-03-23T07:29:35;11.02;;;8.40;;
49458;SDS011;35354;51.296;16.924;2023-03-23T07:32:03;13.57;;;8.13;;
49458;SDS011;35354;51.296;16.924;2023-03-23T07:34:29;19.40;;;8.13;;
49458;SDS011;35354;51.296;16.924;2023-03-23T07:36:55;20.77;;;8.77;;
49458;SDS011;35354;51.296;16.924;2023-03-23T07:39:20;9.82;;;7.55;;
49458;SDS011;35354;51.296;16.924;2023-03-23T07:41:48;13.23;;;8.82;;
49458;SDS011;35354;51.296;16.924;2023-03-23T07:44:13;8.43;;;7.45;;
49458;SDS011;35354;51.296;16.924;2023-03-23T07:46:38;13.95;;;9.35;;
49458;SDS011;35354;51.296;16.924;2023-03-23T07:49:04;12.23;;;9.60;;
49458;SDS011;35354;51.296;16.924;2023-03-23T07:51:30;10.00;;;7.22;;
49458;SDS011;35354;51.296;16.924;2023-03-23T07:53:56;7.90;;;7.05;;
49458;SDS011;35354;51.296;16.924;2023-03-23T07:56:22;10.98;;;6.93;;
49458;SDS011;35354;51.296;16.924;2023-03-23T07:58:47;9.75;;;6.45;;
49458;SDS011;35354;51.296;16.924;2023-03-23T08:01:13;10.15;;;6.88;;
49458;SDS011;35354;51.296;16.924;2023-03-23T08:03:39;14.55;;;7.22;;
49458;SDS011;35354;51.296;16.924;2023-03-23T08:06:05;8.82;;;6.68;;
49458;SDS011;35354;51.296;16.924;2023-03-23T08:08:30;9.63;;;7.28;;
49458;SDS011;35354;51.296;16.924;2023-03-23T08:10:56;9.98;;;7.32;;
49458;SDS011;35354;51.296;16.924;2023-03-23T08:13:22;8.30;;;6.00;;
49458;SDS011;35354;51.296;16.924;2023-03-23T08:15:47;8.25;;;6.60;;
49458;SDS011;35354;51.296;16.924;2023-03-23T08:18:13;8.43;;;6.82;;
49458;SDS011;35354;51.296;16.924;2023-03-23T08:20:39;8.82;;;6.32;;
49458;SDS011;35354;51.296;16.924;2023-03-23T08:23:05;9.95;;;7.05;;
49458;SDS011;35354;51.296;16.924;2023-03-23T08:25:31;8.32;;;7.00;;
49458;SDS011;35354;51.296;16.924;2023-03-23T08:27:57;8.80;;;6.68;;
49458;SDS011;35354;51.296;16.924;2023-03-23T08:30:23;8.85;;;6.80;;
49458;SDS011;35354;51.296;16.924;2023-03-23T08:32:50;10.10;;;7.18;;
49458;SDS011;35354;51.296;16.924;2023-03-23T08:35:17;7.32;;;6.28;;
49458;SDS011;35354;51.296;16.924;2023-03-23T08:37:43;10.13;;;7.22;;
49458;SDS011;35354;51.296;16.924;2023-03-23T08:40:10;6.95;;;6.07;;
49458;SDS011;35354;51.296;16.924;2023-03-23T08:42:39;8.05;;;6.32;;
49458;SDS011;35354;51.296;16.924;2023-03-23T08:45:08;9.65;;;7.47;;
49458;SDS011;35354;51.296;16.924;2023-03-23T08:47:36;8.63;;;7.47;;
49458;SDS011;35354;51.296;16.924;2023-03-23T08:50:03;9.02;;;6.53;;
49458;SDS011;35354;51.296;16.924;2023-03-23T08:52:31;7.40;;;6.53;;
49458;SDS011;35354;51.296;16.924;2023-03-23T08:54:57;8.65;;;7.03;;
49458;SDS011;35354;51.296;16.924;2023-03-23T08:57:25;8.27;;;5.93;;
49458;SDS011;35354;51.296;16.924;2023-03-23T08:59:51;7.13;;;6.10;;
49458;SDS011;35354;51.296;16.924;2023-03-23T09:02:19;7.35;;;6.28;;
49458;SDS011;35354;51.296;16.924;2023-03-23T09:04:45;8.13;;;6.65;;
49458;SDS011;35354;51.296;16.924;2023-03-23T09:07:11;6.90;;;5.65;;
49458;SDS011;35354;51.296;16.924;2023-03-23T09:09:39;7.75;;;5.78;;
49458;SDS011;35354;51.296;16.924;2023-03-23T09:12:05;8.32;;;5.55;;
49458;SDS011;35354;51.296;16.924;2023-03-23T09:14:32;6.97;;;5.20;;
49458;SDS011;35354;51.296;16.924;2023-03-23T09:16:57;8.98;;;5.68;;
49458;SDS011;35354;51.296;16.924;2023-03-23T09:19:23;8.68;;;5.63;;
49458;SDS011;35354;51.296;16.924;2023-03-23T09:21:48;6.65;;;5.40;;
49458;SDS011;35354;51.296;16.924;2023-03-23T09:24:14;8.02;;;5.22;;
49458;SDS011;35354;51.296;16.924;2023-03-23T09:26:40;6.20;;;4.70;;
49458;SDS011;35354;51.296;16.924;2023-03-23T09:29:05;6.07;;;4.72;;
49458;SDS011;35354;51.296;16.924;2023-03-23T09:31:31;7.90;;;4.95;;
49458;SDS011;35354;51.296;16.924;2023-03-23T09:33:56;4.22;;;3.83;;
49458;SDS011;35354;51.296;16.924;2023-03-23T09:36:24;4.60;;;3.92;;
49458;SDS011;35354;51.296;16.924;2023-03-23T09:38:51;4.47;;;3.58;;
49458;SDS011;35354;51.296;16.924;2023-03-23T09:46:54;5.53;;;3.78;;
49458;SDS011;35354;51.296;16.924;2023-03-23T09:49:28;6.00;;;4.30;;
49458;SDS011;35354;51.296;16.924;2023-03-23T09:52:03;6.10;;;4.38;;
49458;SDS011;35354;51.296;16.924;2023-03-23T09:54:36;3.55;;;2.10;;
49458;SDS011;35354;51.296;16.924;2023-03-23T09:57:04;2.95;;;2.05;;
49458;SDS011;35354;51.296;16.924;2023-03-23T09:59:38;2.40;;;2.20;;
49458;SDS011;35354;51.296;16.924;2023-03-23T10:02:11;4.70;;;2.28;;
49458;SDS011;35354;51.296;16.924;2023-03-23T10:04:49;2.53;;;2.17;;
49458;SDS011;35354;51.296;16.924;2023-03-23T10:07:18;3.45;;;2.30;;
49458;SDS011;35354;51.296;16.924;2023-03-23T10:09:46;2.10;;;1.90;;
49458;SDS011;35354;51.296;16.924;2023-03-23T10:17:47;3.45;;;2.08;;
49458;SDS011;35354;51.296;16.924;2023-03-23T10:20:21;3.75;;;2.20;;
49458;SDS011;35354;51.296;16.924;2023-03-23T10:22:53;2.90;;;2.50;;
49458;SDS011;35354;51.296;16.924;2023-03-23T10:25:28;2.22;;;2.03;;
49458;SDS011;35354;51.296;16.924;2023-03-23T10:27:59;5.03;;;2.22;;
49458;SDS011;35354;51.296;16.924;2023-03-23T10:30:32;3.20;;;1.70;;
49458;SDS011;35354;51.296;16.924;2023-03-23T10:38:44;2.35;;;1.80;;
49458;SDS011;35354;51.296;16.924;2023-03-23T10:41:14;1.80;;;1.70;;
49458;SDS011;35354;51.296;16.924;2023-03-23T10:43:42;2.85;;;1.63;;
49458;SDS011;35354;51.296;16.924;2023-03-23T10:48:59;3.92;;;2.00;;
49458;SDS011;35354;51.296;16.924;2023-03-23T10:51:32;4.55;;;2.20;;
49458;SDS011;35354;51.296;16.924;2023-03-23T10:54:01;4.35;;;1.77;;
49458;SDS011;35354;51.296;16.924;2023-03-23T10:56:34;2.25;;;2.00;;
49458;SDS011;35354;51.296;16.924;2023-03-23T11:02:00;3.63;;;1.98;;
49458;SDS011;35354;51.296;16.924;2023-03-23T11:04:28;3.58;;;2.00;;
49458;SDS011;35354;51.296;16.924;2023-03-23T11:06:58;2.17;;;1.83;;
49458;SDS011;35354;51.296;16.924;2023-03-23T11:09:35;4.78;;;2.90;;
49458;SDS011;35354;51.296;16.924;2023-03-23T11:12:02;2.75;;;2.30;;
49458;SDS011;35354;51.296;16.924;2023-03-23T11:14:34;4.53;;;2.30;;
49458;SDS011;35354;51.296;16.924;2023-03-23T11:17:04;2.10;;;1.90;;
49458;SDS011;35354;51.296;16.924;2023-03-23T11:19:32;2.13;;;1.92;;
49458;SDS011;35354;51.296;16.924;2023-03-23T11:24:29;2.92;;;2.20;;
49458;SDS011;35354;51.296;16.924;2023-03-23T11:26:58;2.40;;;2.05;;
49458;SDS011;35354;51.296;16.924;2023-03-23T11:29:24;2.53;;;1.95;;
49458;SDS011;35354;51.296;16.924;2023-03-23T11:34:29;4.88;;;1.98;;
49458;SDS011;35354;51.296;16.924;2023-03-23T11:36:58;2.38;;;1.85;;
49458;SDS011;35354;51.296;16.924;2023-03-23T11:39:30;2.17;;;1.90;;
49458;SDS011;35354;51.296;16.924;2023-03-23T11:41:58;2.45;;;1.88;;
49458;SDS011;35354;51.296;16.924;2023-03-23T11:44:31;3.22;;;2.00;;
49458;SDS011;35354;51.296;16.924;2023-03-23T11:47:00;2.75;;;1.95;;
49458;SDS011;35354;51.296;16.924;2023-03-23T11:55:13;2.15;;;1.88;;
49458;SDS011;35354;51.296;16.924;2023-03-23T11:57:42;2.63;;;2.42;;
49458;SDS011;35354;51.296;16.924;2023-03-23T12:00:15;3.50;;;2.40;;
49458;SDS011;35354;51.296;16.924;2023-03-23T12:06:05;2.97;;;2.20;;
49458;SDS011;35354;51.296;16.924;2023-03-23T12:21:59;4.90;;;3.03;;
49458;SDS011;35354;51.296;16.924;2023-03-23T12:24:42;3.28;;;2.53;;
49458;SDS011;35354;51.296;16.924;2023-03-23T12:27:15;3.50;;;2.55;;
49458;SDS011;35354;51.296;16.924;2023-03-23T12:30:20;3.97;;;2.83;;
49458;SDS011;35354;51.296;16.924;2023-03-23T12:44:50;4.00;;;2.72;;
49458;SDS011;35354;51.296;16.924;2023-03-23T12:47:24;4.70;;;2.80;;
49458;SDS011;35354;51.296;16.924;2023-03-23T12:50:01;4.70;;;2.80;;
49458;SDS011;35354;51.296;16.924;2023-03-23T12:58:17;4.18;;;3.22;;
49458;SDS011;35354;51.296;16.924;2023-03-23T13:03:31;6.03;;;3.90;;
49458;SDS011;35354;51.296;16.924;2023-03-23T13:08:55;9.23;;;6.80;;
49458;SDS011;35354;51.296;16.924;2023-03-23T13:11:35;11.30;;;7.68;;
49458;SDS011;35354;51.296;16.924;2023-03-23T13:14:04;3.92;;;3.40;;
49458;SDS011;35354;51.296;16.924;2023-03-23T13:16:50;2.55;;;2.35;;
49458;SDS011;35354;51.296;16.924;2023-03-23T13:19:22;2.90;;;2.70;;
49458;SDS011;35354;51.296;16.924;2023-03-23T13:22:06;6.13;;;3.25;;
49458;SDS011;35354;51.296;16.924;2023-03-23T13:24:39;3.85;;;2.50;;
49458;SDS011;35354;51.296;16.924;2023-03-23T13:27:14;6.35;;;3.70;;
49458;SDS011;35354;51.296;16.924;2023-03-23T13:29:44;4.70;;;3.67;;
49458;SDS011;35354;51.296;16.924;2023-03-23T13:32:12;6.32;;;3.80;;
49458;SDS011;35354;51.296;16.924;2023-03-23T13:34:41;6.43;;;4.40;;
49458;SDS011;35354;51.296;16.924;2023-03-23T13:37:25;7.20;;;5.13;;
49458;SDS011;35354;51.296;16.924;2023-03-23T13:39:52;6.40;;;3.15;;
49458;SDS011;35354;51.296;16.924;2023-03-23T13:42:28;6.35;;;3.55;;
49458;SDS011;35354;51.296;16.924;2023-03-23T13:45:18;5.45;;;2.88;;
49458;SDS011;35354;51.296;16.924;2023-03-23T13:47:47;3.60;;;3.03;;
49458;SDS011;35354;51.296;16.924;2023-03-23T13:55:21;6.22;;;3.08;;
49458;SDS011;35354;51.296;16.924;2023-03-23T14:03:14;4.22;;;2.92;;
49458;SDS011;35354;51.296;16.924;2023-03-23T14:10:44;3.60;;;2.75;;
49458;SDS011;35354;51.296;16.924;2023-03-23T14:13:19;5.53;;;3.00;;
49458;SDS011;35354;51.296;16.924;2023-03-23T14:18:31;5.72;;;3.20;;
49458;SDS011;35354;51.296;16.924;2023-03-23T14:21:04;5.80;;;3.53;;
49458;SDS011;35354;51.296;16.924;2023-03-23T14:23:32;3.55;;;2.85;;
49458;SDS011;35354;51.296;16.924;2023-03-23T14:25:59;3.75;;;2.95;;
49458;SDS011;35354;51.296;16.924;2023-03-23T14:28:36;3.78;;;2.67;;
49458;SDS011;35354;51.296;16.924;2023-03-23T14:31:03;5.07;;;3.30;;
49458;SDS011;35354;51.296;16.924;2023-03-23T14:33:29;3.83;;;3.25;;
49458;SDS011;35354;51.296;16.924;2023-03-23T14:35:56;4.28;;;3.20;;
49458;SDS011;35354;51.296;16.924;2023-03-23T14:38:24;4.32;;;2.83;;
49458;SDS011;35354;51.296;16.924;2023-03-23T14:40:59;3.30;;;3.00;;
49458;SDS011;35354;51.296;16.924;2023-03-23T14:43:26;4.80;;;2.80;;
49458;SDS011;35354;51.296;16.924;2023-03-23T14:45:52;5.05;;;3.05;;
49458;SDS011;35354;51.296;16.924;2023-03-23T14:48:20;4.40;;;3.28;;
49458;SDS011;35354;51.296;16.924;2023-03-23T14:50:50;5.47;;;2.92;;
49458;SDS011;35354;51.296;16.924;2023-03-23T14:55:43;3.30;;;2.78;;
49458;SDS011;35354;51.296;16.924;2023-03-23T14:58:11;3.40;;;2.55;;
49458;SDS011;35354;51.296;16.924;2023-03-23T15:00:40;4.03;;;3.00;;
49458;SDS011;35354;51.296;16.924;2023-03-23T15:03:10;4.53;;;2.92;;
49458;SDS011;35354;51.296;16.924;2023-03-23T15:05:42;4.32;;;3.08;;
49458;SDS011;35354;51.296;16.924;2023-03-23T15:08:13;3.67;;;3.17;;
49458;SDS011;35354;51.296;16.924;2023-03-23T15:10:50;4.75;;;3.38;;
49458;SDS011;35354;51.296;16.924;2023-03-23T15:13:18;3.78;;;2.85;;
49458;SDS011;35354;51.296;16.924;2023-03-23T15:15:44;5.35;;;3.20;;
49458;SDS011;35354;51.296;16.924;2023-03-23T15:18:18;4.03;;;3.20;;
49458;SDS011;35354;51.296;16.924;2023-03-23T15:23:59;3.40;;;2.90;;
49458;SDS011;35354;51.296;16.924;2023-03-23T15:26:30;3.45;;;3.13;;
49458;SDS011;35354;51.296;16.924;2023-03-23T15:31:45;3.25;;;2.90;;
49458;SDS011;35354;51.296;16.924;2023-03-23T15:34:26;4.57;;;3.05;;
49458;SDS011;35354;51.296;16.924;2023-03-23T15:36:57;5.88;;;3.13;;
49458;SDS011;35354;51.296;16.924;2023-03-23T15:39:25;6.30;;;3.08;;
49458;SDS011;35354;51.296;16.924;2023-03-23T15:41:52;4.20;;;3.10;;
49458;SDS011;35354;51.296;16.924;2023-03-23T15:44:22;7.35;;;3.65;;
49458;SDS011;35354;51.296;16.924;2023-03-23T15:47:17;3.83;;;3.35;;
49458;SDS011;35354;51.296;16.924;2023-03-23T15:49:43;5.65;;;3.17;;
49458;SDS011;35354;51.296;16.924;2023-03-23T15:52:10;3.28;;;2.97;;
49458;SDS011;35354;51.296;16.924;2023-03-23T15:54:37;3.45;;;3.00;;
49458;SDS011;35354;51.296;16.924;2023-03-23T15:57:03;5.65;;;3.60;;
49458;SDS011;35354;51.296;16.924;2023-03-23T15:59:28;4.93;;;3.88;;
49458;SDS011;35354;51.296;16.924;2023-03-23T16:01:54;5.32;;;3.72;;
49458;SDS011;35354;51.296;16.924;2023-03-23T16:04:20;4.80;;;3.50;;
49458;SDS011;35354;51.296;16.924;2023-03-23T16:06:46;4.82;;;3.53;;
49458;SDS011;35354;51.296;16.924;2023-03-23T16:09:15;5.60;;;3.38;;
49458;SDS011;35354;51.296;16.924;2023-03-23T16:11:42;4.43;;;3.35;;
49458;SDS011;35354;51.296;16.924;2023-03-23T16:14:08;4.20;;;3.30;;
49458;SDS011;35354;51.296;16.924;2023-03-23T16:16:36;3.47;;;3.17;;
49458;SDS011;35354;51.296;16.924;2023-03-23T16:19:13;6.20;;;3.47;;
49458;SDS011;35354;51.296;16.924;2023-03-23T16:21:40;3.85;;;3.28;;
49458;SDS011;35354;51.296;16.924;2023-03-23T16:24:06;4.75;;;3.25;;
49458;SDS011;35354;51.296;16.924;2023-03-23T16:26:33;6.80;;;3.58;;
49458;SDS011;35354;51.296;16.924;2023-03-23T16:28:58;3.95;;;3.13;;